createdAt,value
2018-01-04T00:01:33.303Z,2.67
2018-01-04T00:04:01.551Z,2.10
2018-01-04T00:06:29.020Z,2.13
2018-01-04T00:08:56.509Z,2.00
2018-01-04T00:11:23.941Z,2.30
2018-01-04T00:13:52.251Z,2.10
2018-01-04T00:16:19.790Z,2.50
2018-01-04T00:18:47.293Z,2.43
2018-01-04T00:21:15.804Z,1.77
2018-01-04T00:23:43.267Z,1.13
2018-01-04T00:26:10.736Z,2.10
2018-01-04T00:28:38.930Z,1.40
2018-01-04T00:31:06.371Z,2.03
2018-01-04T00:33:35.939Z,2.00
2018-01-04T00:36:03.486Z,2.60
2018-01-04T00:38:31.852Z,1.83
2018-01-04T00:40:59.347Z,1.73
2018-01-04T00:43:26.962Z,1.63
2018-01-04T00:45:54.509Z,2.63
2018-01-04T00:48:22.115Z,1.90
2018-01-04T00:50:50.541Z,2.30
2018-01-04T00:53:18.048Z,2.60
2018-01-04T00:55:51.112Z,2.13
2018-01-04T00:58:18.676Z,2.00
2018-01-04T01:01:04.822Z,3.13
2018-01-04T01:03:53.522Z,2.63
2018-01-04T01:06:21.050Z,1.70
2018-01-04T01:08:48.544Z,2.47
2018-01-04T01:11:16.073Z,2.43
2018-01-04T01:13:43.575Z,2.20
2018-01-04T01:16:11.061Z,2.73
2018-01-04T01:18:39.359Z,2.90
2018-01-04T01:21:06.833Z,2.20
2018-01-04T01:23:34.328Z,1.83
2018-01-04T01:26:01.822Z,1.40
2018-01-04T01:28:30.134Z,2.30
2018-01-04T01:30:57.628Z,1.80
2018-01-04T01:33:25.154Z,1.97
2018-01-04T01:35:52.626Z,2.93
2018-01-04T01:38:20.097Z,2.20
2018-01-04T01:40:47.553Z,2.23
2018-01-04T01:43:14.984Z,2.77
2018-01-04T01:45:42.435Z,3.10
2018-01-04T01:48:09.869Z,1.40
2018-01-04T01:50:37.311Z,2.73
2018-01-04T01:53:04.752Z,3.47
2018-01-04T01:55:32.961Z,2.30
2018-01-04T01:58:00.397Z,2.80
2018-01-04T02:00:27.849Z,1.77
2018-01-04T02:02:56.056Z,2.47
2018-01-04T02:05:23.503Z,3.13
2018-01-04T02:07:50.950Z,4.10
2018-01-04T02:10:18.412Z,2.87
2018-01-04T02:12:45.857Z,1.73
2018-01-04T02:15:14.058Z,1.83
2018-01-04T02:17:41.495Z,2.87
2018-01-04T02:20:20.895Z,2.63
2018-01-04T02:25:50.947Z,3.80
2018-01-04T02:28:31.233Z,2.63
2018-01-04T02:31:10.686Z,3.07
2018-01-04T02:33:50.015Z,1.60
2018-01-04T02:36:29.417Z,3.40
2018-01-04T02:39:09.532Z,2.17
2018-01-04T02:41:48.879Z,3.70
2018-01-04T02:44:28.252Z,2.73
2018-01-04T02:46:55.696Z,2.03
2018-01-04T02:49:23.912Z,5.03
2018-01-04T02:51:51.363Z,3.53
2018-01-04T02:54:18.815Z,2.00
2018-01-04T02:56:46.258Z,1.43
2018-01-04T02:59:13.700Z,3.70
2018-01-04T03:01:41.912Z,3.00
2018-01-04T03:04:09.376Z,2.00
2018-01-04T03:06:36.822Z,1.40
2018-01-04T03:09:04.278Z,3.57
2018-01-04T03:11:31.718Z,2.40
2018-01-04T03:13:59.168Z,3.37
2018-01-04T03:16:26.613Z,2.97
2018-01-04T03:18:54.826Z,2.07
2018-01-04T03:21:22.269Z,2.50
2018-01-04T03:23:49.714Z,2.73
2018-01-04T03:26:22.798Z,1.70
2018-01-04T03:28:56.010Z,2.00
2018-01-04T03:31:29.078Z,1.53
2018-01-04T03:34:02.306Z,1.60
2018-01-04T03:36:35.406Z,2.70
2018-01-04T03:39:08.624Z,2.53
2018-01-04T03:41:41.768Z,1.60
2018-01-04T03:44:14.832Z,1.90
2018-01-04T03:46:47.971Z,1.50
2018-01-04T03:49:21.059Z,2.07
2018-01-04T03:51:54.237Z,1.23
2018-01-04T03:57:32.204Z,2.23
2018-01-04T04:00:06.165Z,1.77
2018-01-04T04:02:39.231Z,1.90
2018-01-04T04:05:12.457Z,0.87
2018-01-04T04:07:39.928Z,1.50
2018-01-04T04:10:07.385Z,1.87
2018-01-04T04:12:34.855Z,1.07
2018-01-04T04:15:02.321Z,1.63
2018-01-04T04:17:29.788Z,1.30
2018-01-04T04:19:58.017Z,0.93
2018-01-04T04:22:25.469Z,1.20
2018-01-04T04:24:52.918Z,1.60
2018-01-04T04:27:20.393Z,1.53
2018-01-04T04:29:47.853Z,1.23
2018-01-04T04:32:15.329Z,1.43
2018-01-04T04:34:42.784Z,1.93
2018-01-04T04:37:10.249Z,2.80
2018-01-04T04:39:37.713Z,1.10
2018-01-04T04:42:05.168Z,1.57
2018-01-04T04:44:33.406Z,1.33
2018-01-04T04:47:00.865Z,1.20
2018-01-04T04:49:28.357Z,1.00
2018-01-04T04:51:55.812Z,1.97
2018-01-04T04:54:23.278Z,1.37
2018-01-04T04:56:51.504Z,1.90
2018-01-04T04:59:18.987Z,1.63
2018-01-04T05:01:46.447Z,1.67
2018-01-04T05:04:13.917Z,1.50
2018-01-04T05:06:41.381Z,1.37
2018-01-04T05:09:09.625Z,1.70
2018-01-04T05:11:37.076Z,1.20
2018-01-04T05:14:04.541Z,1.20
2018-01-04T05:16:32.020Z,1.97
2018-01-04T05:18:59.470Z,1.33
2018-01-04T05:21:26.985Z,1.53
2018-01-04T05:23:54.455Z,1.63
2018-01-04T05:26:21.924Z,1.37
2018-01-04T05:28:49.384Z,1.90
2018-01-04T05:31:16.854Z,1.67
2018-01-04T05:33:44.311Z,2.10
2018-01-04T05:36:11.942Z,1.70
2018-01-04T05:38:39.385Z,1.57
2018-01-04T05:41:06.842Z,1.40
2018-01-04T05:43:34.276Z,2.80
2018-01-04T05:46:01.715Z,1.97
2018-01-04T05:48:29.930Z,1.23
2018-01-04T05:50:57.361Z,1.80
2018-01-04T05:53:24.821Z,1.20
2018-01-04T05:55:52.263Z,1.87
2018-01-04T05:58:19.705Z,1.63
2018-01-04T06:00:47.952Z,1.90
2018-01-04T06:03:15.367Z,1.27
2018-01-04T06:05:42.816Z,1.60
2018-01-04T06:08:10.261Z,1.60
2018-01-04T06:10:37.718Z,1.93
2018-01-04T06:13:05.156Z,1.77
2018-01-04T06:15:33.368Z,1.73
2018-01-04T06:18:00.805Z,2.00
2018-01-04T06:20:28.249Z,2.00
2018-01-04T06:22:56.456Z,1.50
2018-01-04T06:25:24.932Z,2.20
2018-01-04T06:27:52.449Z,1.63
2018-01-04T06:30:20.702Z,1.73
2018-01-04T06:32:48.209Z,1.83
2018-01-04T06:35:15.790Z,2.57
2018-01-04T06:37:43.345Z,1.77
2018-01-04T06:40:10.852Z,2.40
2018-01-04T06:42:38.375Z,1.90
2018-01-04T06:45:05.874Z,1.03
2018-01-04T06:47:33.379Z,1.20
2018-01-04T06:50:00.875Z,2.37
2018-01-04T06:52:28.426Z,1.70
2018-01-04T06:54:55.938Z,1.77
2018-01-04T06:57:23.464Z,1.03
2018-01-04T06:59:51.019Z,1.57
2018-01-04T07:02:19.309Z,1.87
2018-01-04T07:04:47.618Z,1.10
2018-01-04T07:07:15.154Z,1.30
2018-01-04T07:09:43.425Z,1.10
2018-01-04T07:12:11.672Z,1.60
2018-01-04T07:14:39.174Z,1.70
2018-01-04T07:17:06.675Z,2.70
2018-01-04T07:19:34.217Z,1.80
2018-01-04T07:22:01.709Z,2.33
2018-01-04T07:24:29.239Z,1.70
2018-01-04T07:26:56.754Z,0.70
2018-01-04T07:29:25.001Z,0.80
2018-01-04T07:31:52.476Z,1.30
2018-01-04T07:34:20.774Z,1.53
2018-01-04T07:36:48.314Z,1.40
2018-01-04T07:39:16.571Z,1.40
2018-01-04T07:41:44.103Z,1.30
2018-01-04T07:44:11.614Z,1.50
2018-01-04T07:46:39.860Z,1.03
2018-01-04T07:49:07.371Z,1.23
2018-01-04T07:51:34.876Z,0.90
2018-01-04T07:54:02.374Z,1.07
2018-01-04T07:56:29.879Z,0.90
2018-01-04T07:58:57.449Z,0.70
2018-01-04T08:01:24.950Z,0.87
2018-01-04T08:03:52.447Z,0.77
2018-01-04T08:06:19.986Z,1.73
2018-01-04T08:08:47.506Z,0.70
2018-01-04T08:11:15.766Z,1.37
2018-01-04T08:13:43.246Z,0.80
2018-01-04T08:16:11.543Z,1.43
2018-01-04T08:18:39.082Z,1.07
2018-01-04T08:21:06.606Z,1.13
2018-01-04T08:23:34.881Z,1.17
2018-01-04T08:26:02.366Z,0.90
2018-01-04T08:28:30.636Z,2.87
2018-01-04T08:30:58.895Z,1.80
2018-01-04T08:33:26.386Z,1.00
2018-01-04T08:35:54.681Z,1.40
2018-01-04T08:38:22.176Z,1.30
2018-01-04T08:40:49.730Z,1.40
2018-01-04T08:43:17.233Z,1.40
2018-01-04T08:45:44.739Z,0.90
2018-01-04T08:48:12.220Z,0.90
2018-01-04T08:50:39.733Z,1.17
2018-01-04T08:53:07.242Z,1.03
2018-01-04T08:55:34.744Z,2.07
2018-01-04T08:58:02.258Z,1.00
2018-01-04T09:03:03.636Z,1.23
2018-01-04T09:05:31.244Z,1.37
2018-01-04T09:07:58.733Z,1.10
2018-01-04T09:10:26.227Z,1.47
2018-01-04T09:12:53.685Z,0.80
2018-01-04T09:15:21.190Z,1.30
2018-01-04T09:17:48.713Z,1.03
2018-01-04T09:20:16.168Z,0.93
2018-01-04T09:22:43.696Z,1.13
2018-01-04T09:25:11.981Z,0.87
2018-01-04T09:27:40.229Z,1.10
2018-01-04T09:30:07.722Z,1.03
2018-01-04T09:32:35.254Z,1.17
2018-01-04T09:35:03.554Z,1.20
2018-01-04T09:37:31.812Z,0.90
2018-01-04T09:40:00.073Z,1.17
2018-01-04T09:42:27.574Z,1.13
2018-01-04T09:44:55.062Z,0.77
2018-01-04T09:47:22.537Z,1.27
2018-01-04T09:49:50.034Z,1.07
2018-01-04T09:52:18.300Z,1.33
2018-01-04T09:54:45.846Z,1.20
2018-01-04T09:57:14.109Z,0.60
2018-01-04T09:59:41.718Z,0.90
2018-01-04T10:02:09.177Z,0.90
2018-01-04T10:04:36.711Z,1.00
2018-01-04T10:07:05.079Z,1.33
2018-01-04T10:09:33.376Z,1.23
2018-01-04T10:12:00.907Z,1.07
2018-01-04T10:14:28.391Z,1.53
2018-01-04T10:16:55.897Z,1.47
2018-01-04T10:19:23.387Z,1.10
2018-01-04T10:21:50.845Z,0.67
2018-01-04T10:24:18.340Z,0.60
2018-01-04T10:26:45.849Z,1.13
2018-01-04T10:29:13.315Z,1.10
2018-01-04T10:31:40.825Z,0.70
2018-01-04T10:34:08.325Z,0.90
2018-01-04T10:36:35.825Z,0.90
2018-01-04T10:39:03.334Z,0.60
2018-01-04T10:41:30.775Z,0.60
2018-01-04T10:43:58.261Z,1.00
2018-01-04T10:46:25.770Z,1.37
2018-01-04T10:48:53.241Z,0.80
2018-01-04T10:51:20.696Z,1.07
2018-01-04T10:53:48.137Z,0.50
2018-01-04T10:56:15.578Z,0.70
2018-01-04T10:58:43.044Z,0.67
2018-01-04T11:01:10.471Z,1.03
2018-01-04T11:03:37.908Z,0.50
2018-01-04T11:06:07.182Z,0.90
2018-01-04T11:08:34.625Z,1.00
2018-01-04T11:11:02.133Z,0.70
2018-01-04T11:13:29.568Z,0.90
2018-01-04T11:15:57.013Z,0.67
2018-01-04T11:18:24.466Z,0.90
2018-01-04T11:20:51.903Z,1.20
2018-01-04T11:23:19.340Z,1.33
2018-01-04T11:25:46.795Z,1.30
2018-01-04T11:28:14.224Z,0.70
2018-01-04T11:30:42.445Z,1.07
2018-01-04T11:33:09.880Z,1.00
2018-01-04T11:35:37.316Z,1.00
2018-01-04T11:38:05.523Z,0.90
2018-01-04T11:40:32.980Z,1.10
2018-01-04T11:43:00.426Z,0.97
2018-01-04T11:45:27.871Z,0.80
2018-01-04T11:47:56.093Z,0.67
2018-01-04T11:50:27.190Z,0.80
2018-01-04T11:52:54.847Z,0.60
2018-01-04T11:55:22.389Z,1.20
2018-01-04T11:57:50.670Z,1.00
2018-01-04T12:00:19.788Z,1.30
2018-01-04T12:02:47.377Z,0.40
2018-01-04T12:05:15.835Z,1.37
2018-01-04T12:07:43.363Z,0.70
2018-01-04T12:10:12.351Z,1.10
2018-01-04T12:12:40.629Z,1.43
2018-01-04T12:15:08.111Z,1.20
2018-01-04T12:17:35.634Z,1.00
2018-01-04T12:20:03.142Z,1.50
2018-01-04T12:22:30.638Z,0.90
2018-01-04T12:24:58.172Z,0.93
2018-01-04T12:27:25.618Z,1.83
2018-01-04T12:29:53.056Z,2.27
2018-01-04T12:32:20.557Z,1.60
2018-01-04T12:34:47.993Z,0.90
2018-01-04T12:37:15.435Z,1.73
2018-01-04T12:39:42.871Z,1.73
2018-01-04T12:42:10.312Z,1.50
2018-01-04T12:44:38.512Z,1.57
2018-01-04T12:47:05.956Z,2.00
2018-01-04T12:49:33.405Z,1.30
2018-01-04T12:52:19.591Z,1.73
2018-01-04T12:54:49.366Z,1.37
2018-01-04T12:57:34.385Z,2.33
2018-01-04T13:00:02.748Z,1.03
2018-01-04T13:02:31.029Z,2.00
2018-01-04T13:04:59.326Z,2.10
2018-01-04T13:07:26.832Z,1.40
2018-01-04T13:09:55.143Z,1.70
2018-01-04T13:12:23.394Z,1.77
2018-01-04T13:14:50.891Z,1.30
2018-01-04T13:17:18.367Z,1.50
2018-01-04T13:19:45.822Z,2.20
2018-01-04T13:22:13.263Z,1.67
2018-01-04T13:24:40.712Z,2.20
2018-01-04T13:27:08.910Z,3.10
2018-01-04T13:29:36.357Z,3.03
2018-01-04T13:32:03.810Z,3.10
2018-01-04T13:34:31.280Z,4.30
2018-01-04T13:36:58.758Z,3.03
2018-01-04T13:39:26.990Z,4.00
2018-01-04T13:41:55.402Z,4.37
2018-01-04T13:44:22.901Z,3.37
2018-01-04T13:46:50.397Z,3.50
2018-01-04T13:49:17.882Z,3.93
2018-01-04T13:51:45.372Z,4.07
2018-01-04T13:54:12.822Z,3.93
2018-01-04T13:56:40.301Z,3.87
2018-01-04T13:59:08.540Z,5.43
2018-01-04T14:01:35.998Z,5.60
2018-01-04T14:04:03.550Z,5.20
2018-01-04T14:06:31.042Z,5.60
2018-01-04T14:08:59.365Z,5.30
2018-01-04T14:11:26.816Z,5.67
2018-01-04T14:13:54.286Z,5.33
2018-01-04T14:16:21.720Z,6.20
2018-01-04T14:18:49.178Z,8.23
2018-01-04T14:21:16.627Z,8.10
2018-01-04T14:23:44.063Z,7.03
2018-01-04T14:26:11.506Z,7.20
2018-01-04T14:28:38.948Z,7.30
2018-01-04T14:31:06.394Z,6.97
2018-01-04T14:33:33.837Z,6.73
2018-01-04T14:36:01.279Z,7.33
2018-01-04T14:38:28.732Z,7.20
2018-01-04T14:40:56.172Z,7.10
2018-01-04T14:43:23.701Z,6.60
2018-01-04T14:45:51.133Z,5.20
2018-01-04T14:48:18.564Z,6.10
2018-01-04T14:50:46.006Z,5.70
2018-01-04T14:53:13.445Z,5.80
2018-01-04T14:55:41.661Z,6.20
2018-01-04T14:58:09.100Z,5.70
2018-01-04T15:00:36.546Z,6.23
2018-01-04T15:03:03.978Z,10.00
2018-01-04T15:05:32.207Z,8.50
2018-01-04T15:07:59.653Z,9.80
2018-01-04T15:10:27.091Z,7.90
2018-01-04T15:12:54.529Z,7.93
2018-01-04T15:15:22.747Z,5.67
2018-01-04T15:17:50.187Z,7.73
2018-01-04T15:20:17.693Z,6.00
2018-01-04T15:22:45.237Z,6.47
2018-01-04T15:25:12.813Z,4.97
2018-01-04T15:27:40.289Z,4.80
2018-01-04T15:30:07.848Z,6.17
2018-01-04T15:32:36.163Z,5.87
2018-01-04T15:35:03.667Z,5.93
2018-01-04T15:37:31.973Z,5.77
2018-01-04T15:39:59.474Z,5.70
2018-01-04T15:42:26.961Z,6.30
2018-01-04T15:44:54.450Z,5.30
2018-01-04T15:47:22.560Z,5.37
2018-01-04T15:49:50.063Z,4.40
2018-01-04T15:52:18.320Z,3.20
2018-01-04T15:54:45.875Z,4.27
2018-01-04T15:57:13.479Z,3.50
2018-01-04T15:59:40.994Z,4.50
2018-01-04T16:02:08.536Z,3.70
2018-01-04T16:04:36.105Z,2.33
2018-01-04T16:07:03.620Z,3.73
2018-01-04T16:09:31.134Z,2.23
2018-01-04T16:11:58.654Z,3.30
2018-01-04T16:14:26.186Z,1.30
2018-01-04T16:16:56.906Z,1.40
2018-01-04T16:24:40.748Z,1.73
2018-01-04T16:27:08.249Z,2.90
2018-01-04T16:29:35.778Z,3.67
2018-01-04T16:32:03.260Z,2.40
2018-01-04T16:34:30.765Z,4.97
2018-01-04T16:36:58.247Z,4.10
2018-01-04T16:39:25.684Z,5.27
2018-01-04T16:41:53.129Z,3.50
2018-01-04T16:44:20.581Z,4.90
2018-01-04T16:46:48.025Z,4.40
2018-01-04T16:49:15.471Z,3.57
2018-01-04T16:51:42.910Z,4.00
2018-01-04T16:54:11.119Z,5.53
2018-01-04T16:56:38.558Z,5.87
2018-01-04T16:59:06.021Z,4.30
2018-01-04T17:04:07.573Z,5.90
2018-01-04T17:06:35.066Z,4.80
2018-01-04T17:09:02.573Z,4.10
2018-01-04T17:11:30.826Z,4.60
2018-01-04T17:13:58.264Z,2.83
2018-01-04T17:16:25.726Z,2.53
2018-01-04T17:18:53.930Z,2.23
2018-01-04T17:21:21.376Z,2.60
2018-01-04T17:23:53.884Z,2.40
2018-01-04T17:26:26.225Z,2.50
2018-01-04T17:28:53.794Z,2.40
2018-01-04T17:31:22.193Z,2.20
2018-01-04T17:33:49.698Z,2.10
2018-01-04T17:36:17.309Z,2.50
2018-01-04T17:38:44.829Z,1.93
2018-01-04T17:41:12.337Z,2.80
2018-01-04T17:43:39.912Z,3.20
2018-01-04T17:46:07.474Z,3.40
2018-01-04T17:48:35.046Z,4.43
2018-01-04T17:51:02.564Z,4.70
2018-01-04T17:53:30.084Z,4.50
2018-01-04T17:55:57.779Z,5.20
2018-01-04T17:58:26.037Z,5.50
2018-01-04T18:00:54.330Z,5.57
2018-01-04T18:03:21.849Z,4.03
2018-01-04T18:05:49.355Z,4.47
2018-01-04T18:08:16.874Z,4.37
2018-01-04T18:10:44.449Z,4.67
2018-01-04T18:13:12.792Z,4.17
2018-01-04T18:15:40.399Z,3.60
2018-01-04T18:18:07.954Z,2.37
2018-01-04T18:20:36.231Z,2.30
2018-01-04T18:23:04.564Z,1.53
2018-01-04T18:25:32.094Z,1.10
2018-01-04T18:27:59.619Z,1.30
2018-01-04T18:30:27.177Z,1.00
2018-01-04T18:32:55.529Z,0.90
2018-01-04T18:35:23.514Z,0.70
2018-01-04T18:37:51.784Z,1.00
2018-01-04T18:40:20.617Z,0.80
2018-01-04T18:42:48.190Z,0.80
2018-01-04T18:47:57.712Z,1.10
2018-01-04T18:50:26.072Z,1.37
2018-01-04T18:52:54.406Z,1.13
2018-01-04T18:55:21.990Z,1.57
2018-01-04T18:57:49.536Z,1.67
2018-01-04T19:00:17.121Z,1.90
2018-01-04T19:02:45.778Z,2.30
2018-01-04T19:05:13.345Z,2.37
2018-01-04T19:07:51.890Z,1.83
2018-01-04T19:10:19.551Z,2.10
2018-01-04T19:12:47.946Z,2.27
2018-01-04T19:15:19.865Z,2.03
2018-01-04T19:17:52.435Z,2.90
2018-01-04T19:20:20.049Z,2.33
2018-01-04T19:22:59.437Z,2.70
2018-01-04T19:25:28.448Z,3.20
2018-01-04T19:27:57.698Z,2.17
2018-01-04T19:30:25.941Z,2.00
2018-01-04T19:33:09.288Z,1.40
2018-01-04T19:35:47.097Z,1.33
2018-01-04T19:38:28.941Z,1.10
2018-01-04T19:41:01.922Z,0.47
2018-01-04T19:43:42.144Z,0.70
2018-01-04T19:46:13.437Z,0.80
2018-01-04T19:48:41.794Z,0.60
2018-01-04T19:51:09.989Z,0.47
2018-01-04T19:53:37.563Z,18.73
2018-01-04T19:56:05.140Z,0.80
2018-01-04T19:58:36.559Z,0.70
2018-01-04T20:01:37.029Z,0.80
2018-01-04T20:04:24.010Z,2.00
2018-01-04T20:07:07.297Z,0.70
2018-01-04T20:09:34.892Z,0.67
2018-01-04T20:15:30.555Z,0.70
2018-01-04T20:17:58.145Z,0.40
2018-01-04T20:20:25.696Z,0.50
2018-01-04T20:22:53.280Z,0.50
2018-01-04T20:25:20.823Z,0.83
2018-01-04T20:27:48.387Z,0.40
2018-01-04T20:30:15.912Z,0.50
2018-01-04T20:32:43.399Z,0.57
2018-01-04T20:35:10.877Z,0.60
2018-01-04T20:37:38.428Z,0.50
2018-01-04T20:40:05.915Z,0.40
2018-01-04T20:42:33.400Z,0.40
2018-01-04T20:45:26.085Z,0.57
2018-01-04T21:08:00.869Z,0.40
2018-01-04T21:10:28.968Z,0.57
2018-01-04T21:12:57.420Z,0.70
2018-01-04T21:15:30.878Z,0.73
2018-01-04T21:17:58.530Z,0.47
2018-01-04T21:20:26.113Z,0.60
2018-01-04T21:22:53.721Z,0.60
2018-01-04T21:25:24.086Z,0.57
2018-01-04T21:27:51.640Z,0.67
2018-01-04T21:30:19.227Z,0.93
2018-01-04T21:32:46.825Z,0.70
2018-01-04T21:35:15.147Z,0.70
2018-01-04T21:37:42.791Z,0.63
2018-01-04T21:40:10.382Z,0.70
2018-01-04T21:42:37.974Z,0.73
2018-01-04T21:45:05.539Z,1.03
2018-01-04T21:47:33.884Z,1.17
2018-01-04T21:50:01.495Z,1.13
2018-01-04T21:52:29.933Z,1.20
2018-01-04T21:54:58.155Z,1.13
2018-01-04T21:57:29.191Z,0.97
2018-01-04T21:59:56.778Z,1.67
2018-01-04T22:02:24.420Z,1.27
2018-01-04T22:04:52.008Z,1.27
2018-01-04T22:07:19.617Z,1.73
2018-01-04T22:09:47.976Z,1.70
2018-01-04T22:12:16.433Z,1.23
2018-01-04T22:14:44.093Z,1.70
2018-01-04T22:17:11.683Z,1.70
2018-01-04T22:19:41.034Z,1.57
2018-01-04T22:22:09.459Z,1.73
2018-01-04T22:24:37.907Z,1.30
2018-01-04T22:27:05.511Z,1.80
2018-01-04T22:29:35.133Z,1.50
2018-01-04T22:32:02.731Z,2.57
2018-01-04T22:34:30.346Z,1.13
2018-01-04T22:36:58.716Z,1.73
2018-01-04T22:39:27.047Z,1.43
2018-01-04T22:41:55.633Z,1.67
2018-01-04T22:44:23.879Z,1.90
2018-01-04T22:46:52.346Z,1.87
2018-01-04T22:49:20.680Z,1.70
2018-01-04T22:51:48.257Z,1.60
2018-01-04T22:54:15.825Z,1.60
2018-01-04T22:56:43.406Z,2.27
2018-01-04T22:59:10.940Z,2.10
2018-01-04T23:01:38.424Z,1.57
2018-01-04T23:04:06.741Z,2.20
2018-01-04T23:06:34.222Z,1.80
2018-01-04T23:09:01.709Z,1.80
2018-01-04T23:11:29.959Z,2.90
2018-01-04T23:13:57.443Z,2.53
2018-01-04T23:16:25.695Z,2.37
2018-01-04T23:18:53.153Z,2.63
2018-01-04T23:21:20.660Z,2.83
2018-01-04T23:23:48.166Z,3.53
2018-01-04T23:26:15.651Z,2.90
2018-01-04T23:28:43.900Z,2.30
2018-01-04T23:31:11.371Z,3.93
2018-01-04T23:33:39.616Z,2.30
2018-01-04T23:36:07.891Z,3.00
2018-01-04T23:38:35.353Z,2.73
2018-01-04T23:41:02.830Z,3.17
2018-01-04T23:43:30.305Z,2.47
2018-01-04T23:45:58.551Z,2.40
2018-01-04T23:48:26.024Z,2.53
2018-01-04T23:50:54.267Z,2.60
2018-01-04T23:53:21.785Z,4.60
2018-01-04T23:55:49.263Z,2.57
2018-01-04T23:58:16.738Z,2.13
